createdAt,value
2022-11-03T00:00:27.316Z,99.90
2022-11-03T00:03:00.851Z,99.90
2022-11-03T00:06:03.072Z,99.90
2022-11-03T00:08:39.316Z,99.90
2022-11-03T00:11:15.668Z,99.90
2022-11-03T00:13:48.915Z,99.90
2022-11-03T00:16:22.267Z,99.90
2022-11-03T00:18:55.882Z,99.90
2022-11-03T00:21:29.924Z,99.90
2022-11-03T00:24:03.612Z,99.90
2022-11-03T00:26:39.096Z,99.90
2022-11-03T00:29:14.221Z,99.90
2022-11-03T00:31:47.678Z,99.90
2022-11-03T00:34:20.942Z,99.90
2022-11-03T00:36:54.467Z,99.90
2022-11-03T00:39:27.722Z,99.90
2022-11-03T00:42:02.670Z,99.90
2022-11-03T00:44:36.099Z,99.90
2022-11-03T00:47:09.513Z,99.90
2022-11-03T00:49:42.743Z,99.90
2022-11-03T00:52:16.431Z,99.90
2022-11-03T00:54:54.341Z,99.90
2022-11-03T00:57:30.047Z,99.90
2022-11-03T01:00:03.656Z,99.90
2022-11-03T01:02:37.006Z,99.90
2022-11-03T01:05:28.076Z,99.90
2022-11-03T01:08:01.584Z,99.90
2022-11-03T01:10:38.626Z,99.90
2022-11-03T01:13:14.825Z,99.90
2022-11-03T01:15:48.052Z,99.90
2022-11-03T01:18:21.637Z,99.90
2022-11-03T01:20:58.678Z,99.90
2022-11-03T01:23:32.150Z,99.90
2022-11-03T01:26:06.088Z,99.90
2022-11-03T01:28:43.574Z,99.90
2022-11-03T01:31:20.391Z,99.90
2022-11-03T01:33:55.480Z,99.90
2022-11-03T01:36:29.256Z,99.90
2022-11-03T01:39:02.687Z,99.90
2022-11-03T01:41:35.935Z,99.90
2022-11-03T01:44:31.908Z,99.90
2022-11-03T01:47:12.648Z,99.90
2022-11-03T01:49:50.161Z,99.90
2022-11-03T01:52:29.061Z,99.90
2022-11-03T01:55:06.181Z,99.90
2022-11-03T01:57:45.355Z,99.90
2022-11-03T02:00:20.497Z,99.90
2022-11-03T02:02:54.548Z,99.90
2022-11-03T02:05:30.323Z,99.90
2022-11-03T02:10:49.138Z,99.90
2022-11-03T02:13:24.446Z,99.90
2022-11-03T02:16:01.326Z,99.90
2022-11-03T02:18:36.148Z,99.90
2022-11-03T02:21:16.331Z,99.90
2022-11-03T02:23:57.050Z,99.90
2022-11-03T02:26:32.230Z,99.90
2022-11-03T02:29:05.548Z,99.90
2022-11-03T02:31:43.480Z,99.90
2022-11-03T02:34:22.687Z,99.90
2022-11-03T02:37:00.433Z,99.90
2022-11-03T02:39:37.764Z,99.90
2022-11-03T02:42:13.961Z,99.90
2022-11-03T02:44:49.322Z,99.90
2022-11-03T02:47:25.081Z,99.90
2022-11-03T02:49:58.347Z,99.90
2022-11-03T02:52:38.320Z,99.90
2022-11-03T02:55:16.414Z,99.90
2022-11-03T02:57:58.798Z,99.90
2022-11-03T03:00:37.391Z,99.90
2022-11-03T03:03:16.185Z,99.90
2022-11-03T03:05:54.246Z,99.90
2022-11-03T03:08:28.174Z,99.90
2022-11-03T03:11:04.392Z,99.90
2022-11-03T03:13:39.259Z,99.90
2022-11-03T03:16:18.024Z,99.90
2022-11-03T03:18:55.807Z,99.90
2022-11-03T03:21:35.548Z,99.90
2022-11-03T03:24:15.466Z,99.90
2022-11-03T03:26:50.771Z,99.90
2022-11-03T03:29:29.937Z,99.90
2022-11-03T03:32:07.599Z,99.90
2022-11-03T03:34:44.829Z,99.90
2022-11-03T03:37:19.872Z,99.90
2022-11-03T03:39:57.189Z,99.90
2022-11-03T03:42:32.210Z,99.90
2022-11-03T03:45:10.291Z,99.90
2022-11-03T03:47:44.621Z,99.90
2022-11-03T03:50:18.642Z,99.90
2022-11-03T03:52:56.237Z,99.90
2022-11-03T03:55:36.535Z,99.90
2022-11-03T03:58:13.114Z,99.90
2022-11-03T04:00:48.162Z,99.90
2022-11-03T04:03:23.232Z,99.90
2022-11-03T04:05:56.883Z,99.90
2022-11-03T04:08:30.133Z,99.90
2022-11-03T04:11:21.100Z,99.90
2022-11-03T04:14:11.581Z,99.90
2022-11-03T04:17:03.653Z,99.90
2022-11-03T04:19:54.293Z,99.90
2022-11-03T04:22:30.345Z,99.90
2022-11-03T04:25:04.069Z,99.90
2022-11-03T04:27:38.718Z,99.90
2022-11-03T04:30:17.366Z,99.90
2022-11-03T04:32:54.205Z,99.90
2022-11-03T04:35:29.562Z,99.90
2022-11-03T04:38:10.548Z,99.90
2022-11-03T04:40:51.975Z,99.90
2022-11-03T04:43:34.471Z,99.90
2022-11-03T04:46:11.959Z,99.90
2022-11-03T04:48:47.834Z,99.90
2022-11-03T04:51:23.753Z,99.90
2022-11-03T04:54:02.935Z,99.90
2022-11-03T04:56:36.175Z,99.90
2022-11-03T04:59:12.807Z,99.90
2022-11-03T05:01:47.797Z,99.90
2022-11-03T05:04:22.573Z,99.90
2022-11-03T05:06:56.055Z,99.90
2022-11-03T05:09:31.351Z,99.90
2022-11-03T05:12:05.329Z,99.90
2022-11-03T05:14:38.851Z,99.90
2022-11-03T05:17:23.400Z,99.90
2022-11-03T05:20:01.357Z,99.90
2022-11-03T05:22:37.678Z,99.90
2022-11-03T05:25:35.065Z,99.90
2022-11-03T05:28:20.359Z,99.90
2022-11-03T05:30:54.541Z,99.90
2022-11-03T05:33:30.434Z,99.90
2022-11-03T05:36:13.582Z,99.90
2022-11-03T05:38:47.159Z,99.90
2022-11-03T05:41:23.787Z,99.90
2022-11-03T05:43:59.233Z,99.90
2022-11-03T05:46:34.953Z,99.90
2022-11-03T05:49:08.692Z,99.90
2022-11-03T05:51:44.830Z,99.90
2022-11-03T05:54:22.646Z,99.90
2022-11-03T05:56:58.353Z,99.90
2022-11-03T05:59:31.878Z,99.90
2022-11-03T06:02:20.935Z,99.90
2022-11-03T06:04:54.298Z,99.90
2022-11-03T06:07:31.389Z,99.90
2022-11-03T06:10:19.791Z,99.90
2022-11-03T06:12:55.228Z,99.90
2022-11-03T06:15:31.248Z,99.90
2022-11-03T06:18:15.515Z,99.90
2022-11-03T06:20:52.339Z,99.90
2022-11-03T06:23:27.572Z,99.90
2022-11-03T06:26:02.673Z,99.90
2022-11-03T06:28:40.242Z,99.90
2022-11-03T06:31:22.899Z,99.90
2022-11-03T06:33:58.244Z,99.90
2022-11-03T06:36:35.948Z,99.90
2022-11-03T06:39:19.676Z,99.90
2022-11-03T06:41:53.445Z,99.90
2022-11-03T06:44:28.501Z,99.90
2022-11-03T06:47:08.098Z,99.90
2022-11-03T06:49:41.455Z,99.90
2022-11-03T06:52:31.479Z,99.90
2022-11-03T06:55:25.099Z,99.90
2022-11-03T06:58:06.206Z,99.90
2022-11-03T07:00:45.874Z,99.90
2022-11-03T07:03:26.845Z,99.90
2022-11-03T07:06:03.147Z,99.90
2022-11-03T07:08:40.920Z,99.90
2022-11-03T07:11:18.939Z,99.90
2022-11-03T07:13:54.432Z,99.90
2022-11-03T07:16:33.176Z,99.90
2022-11-03T07:19:12.275Z,99.90
2022-11-03T07:21:49.112Z,99.90
2022-11-03T07:24:25.257Z,99.90
2022-11-03T07:27:03.656Z,99.90
2022-11-03T07:29:37.012Z,99.90
2022-11-03T07:32:13.463Z,99.90
2022-11-03T07:34:48.558Z,99.90
2022-11-03T07:37:24.322Z,99.90
2022-11-03T07:39:59.671Z,99.90
2022-11-03T07:42:34.293Z,99.90
2022-11-03T07:45:33.850Z,99.90
2022-11-03T07:48:19.258Z,99.90
2022-11-03T07:50:55.077Z,99.90
2022-11-03T07:53:36.812Z,99.90
2022-11-03T07:56:17.369Z,99.90
2022-11-03T07:58:55.395Z,99.90
2022-11-03T08:01:30.909Z,99.90
2022-11-03T08:04:07.812Z,99.90
2022-11-03T08:06:41.131Z,99.90
2022-11-03T08:09:14.418Z,99.90
2022-11-03T08:11:47.950Z,99.90
2022-11-03T08:14:22.822Z,99.90
2022-11-03T08:16:56.155Z,99.90
2022-11-03T08:19:30.082Z,99.90
2022-11-03T08:22:03.493Z,99.90
2022-11-03T08:24:36.735Z,99.90
2022-11-03T08:27:10.026Z,99.90
2022-11-03T08:29:44.694Z,99.90
2022-11-03T08:32:18.012Z,99.90
2022-11-03T08:34:51.283Z,99.90
2022-11-03T08:37:24.599Z,99.90
2022-11-03T08:39:57.897Z,99.90
2022-11-03T08:42:31.218Z,99.90
2022-11-03T08:45:06.891Z,99.90
2022-11-03T08:47:40.226Z,99.90
2022-11-03T08:50:13.714Z,99.90
2022-11-03T08:52:47.033Z,99.90
2022-11-03T08:55:20.346Z,99.90
2022-11-03T08:57:53.666Z,99.90
2022-11-03T09:00:28.392Z,99.90
2022-11-03T09:03:01.730Z,99.90
2022-11-03T09:05:35.003Z,99.90
2022-11-03T09:11:01.896Z,99.90
2022-11-03T09:13:35.175Z,99.90
2022-11-03T09:16:10.210Z,99.90
2022-11-03T09:18:43.519Z,99.90
2022-11-03T09:21:16.855Z,99.90
2022-11-03T09:23:50.194Z,99.90
2022-11-03T09:26:23.521Z,99.90
2022-11-03T09:28:56.867Z,99.90
2022-11-03T09:31:31.547Z,99.90
2022-11-03T09:34:04.821Z,99.90
2022-11-03T09:36:38.285Z,99.90
2022-11-03T09:39:11.960Z,99.90
2022-11-03T09:41:57.852Z,99.90
2022-11-03T09:44:34.641Z,99.90
2022-11-03T09:47:15.281Z,99.90
2022-11-03T09:49:48.579Z,99.90
2022-11-03T09:52:24.266Z,99.90
2022-11-03T09:54:57.965Z,99.90
2022-11-03T09:57:32.473Z,99.90
2022-11-03T10:00:09.359Z,99.90
2022-11-03T10:02:44.780Z,99.90
2022-11-03T10:05:25.524Z,99.90
2022-11-03T10:08:04.135Z,99.90
2022-11-03T10:10:37.928Z,99.90
2022-11-03T10:13:16.502Z,99.90
2022-11-03T10:15:49.824Z,99.90
2022-11-03T10:18:25.348Z,99.90
2022-11-03T10:21:03.686Z,99.90
2022-11-03T10:23:36.933Z,99.90
2022-11-03T10:26:12.164Z,99.90
2022-11-03T10:29:03.040Z,99.90
2022-11-03T10:31:37.603Z,99.90
2022-11-03T10:34:26.886Z,99.90
2022-11-03T10:37:17.305Z,99.90
2022-11-03T10:39:52.191Z,99.90
2022-11-03T10:42:32.002Z,99.90
2022-11-03T10:45:13.158Z,99.90
2022-11-03T10:48:00.809Z,99.90
2022-11-03T10:50:35.725Z,99.90
2022-11-03T10:53:17.424Z,99.90
2022-11-03T10:55:50.844Z,99.90
2022-11-03T10:58:24.540Z,99.90
2022-11-03T11:00:57.929Z,99.90
2022-11-03T11:03:31.692Z,99.90
2022-11-03T11:06:06.619Z,99.90
2022-11-03T11:08:39.909Z,99.90
2022-11-03T11:11:17.005Z,99.90
2022-11-03T11:14:23.664Z,99.90
2022-11-03T11:16:58.593Z,99.90
2022-11-03T11:19:52.377Z,99.90
2022-11-03T11:22:27.005Z,99.90
2022-11-03T11:25:01.865Z,99.90
2022-11-03T11:27:58.653Z,99.90
2022-11-03T11:30:58.941Z,99.90
2022-11-03T11:33:34.311Z,99.90
2022-11-03T11:36:28.441Z,99.90
2022-11-03T11:39:03.984Z,99.90
2022-11-03T11:42:11.968Z,99.90
2022-11-03T11:44:59.274Z,99.90
2022-11-03T11:47:48.023Z,99.90
2022-11-03T11:50:31.408Z,98.90
2022-11-03T11:53:27.644Z,98.10
2022-11-03T11:56:06.709Z,95.40
2022-11-03T11:58:43.671Z,97.30
2022-11-03T12:01:23.532Z,94.70
2022-11-03T12:03:58.411Z,93.90
2022-11-03T12:06:35.541Z,94.00
2022-11-03T12:09:15.737Z,93.60
2022-11-03T12:11:56.118Z,94.20
2022-11-03T12:14:35.202Z,92.80
2022-11-03T12:17:34.028Z,92.90
2022-11-03T12:20:35.859Z,90.70
2022-11-03T12:23:09.141Z,89.70
2022-11-03T12:25:42.542Z,91.40
2022-11-03T12:28:35.611Z,90.70
2022-11-03T12:31:08.831Z,90.00
2022-11-03T12:33:42.189Z,91.10
2022-11-03T12:36:15.439Z,87.00
2022-11-03T12:38:48.715Z,86.90
2022-11-03T12:41:25.340Z,86.90
2022-11-03T12:44:00.022Z,85.20
2022-11-03T12:46:33.337Z,87.50
2022-11-03T12:49:06.591Z,87.30
2022-11-03T12:51:39.980Z,86.10
2022-11-03T12:54:13.431Z,85.80
2022-11-03T12:56:46.671Z,85.90
2022-11-03T12:59:21.301Z,85.80
2022-11-03T13:01:54.726Z,85.60
2022-11-03T13:04:28.176Z,86.90
2022-11-03T13:07:01.466Z,86.60
2022-11-03T13:09:35.869Z,87.70
2022-11-03T13:12:30.933Z,86.70
2022-11-03T13:15:08.477Z,87.00
2022-11-03T13:20:35.912Z,86.40
2022-11-03T13:23:09.596Z,87.10
2022-11-03T13:25:43.206Z,86.50
2022-11-03T13:28:16.597Z,85.70
2022-11-03T13:30:51.219Z,86.50
2022-11-03T13:33:24.523Z,86.10
2022-11-03T13:35:57.841Z,87.30
2022-11-03T13:38:31.518Z,87.90
2022-11-03T13:41:08.726Z,88.00
2022-11-03T13:43:42.325Z,88.30
2022-11-03T13:46:16.979Z,88.00
2022-11-03T13:49:44.659Z,87.30
2022-11-03T13:51:43.507Z,87.80
2022-11-03T14:00:05.601Z,89.50
2022-11-03T14:05:41.575Z,90.40
2022-11-03T14:08:14.983Z,90.90
2022-11-03T14:10:48.215Z,91.20
2022-11-03T14:13:20.802Z,91.10
2022-11-03T14:15:54.194Z,91.50
2022-11-03T14:18:28.779Z,91.80
2022-11-03T14:21:02.296Z,91.90
2022-11-03T14:23:35.534Z,92.30
2022-11-03T14:26:23.896Z,92.90
2022-11-03T14:29:02.420Z,93.40
2022-11-03T14:31:36.441Z,93.80
2022-11-03T14:34:11.144Z,94.30
2022-11-03T14:36:44.450Z,94.70
2022-11-03T14:39:18.038Z,95.20
2022-11-03T14:42:06.477Z,95.80
2022-11-03T14:44:40.895Z,96.50
2022-11-03T14:47:15.469Z,98.50
2022-11-03T14:49:50.512Z,99.10
2022-11-03T14:52:23.775Z,99.80
2022-11-03T14:54:57.048Z,99.90
2022-11-03T14:57:30.363Z,99.90
2022-11-03T15:00:04.206Z,99.90
2022-11-03T15:02:38.572Z,99.90
2022-11-03T15:05:33.261Z,99.90
2022-11-03T15:08:06.983Z,99.90
2022-11-03T15:10:40.541Z,99.90
2022-11-03T15:13:13.888Z,99.90
2022-11-03T15:15:47.249Z,99.90
2022-11-03T15:18:20.614Z,99.90
2022-11-03T15:20:55.312Z,99.90
2022-11-03T15:26:22.002Z,99.90
2022-11-03T15:28:55.285Z,99.90
2022-11-03T15:31:28.538Z,99.90
2022-11-03T15:34:04.439Z,99.90
2022-11-03T15:36:42.428Z,99.90
2022-11-03T15:39:16.117Z,99.90
2022-11-03T15:41:49.373Z,99.90
2022-11-03T15:44:22.774Z,99.90
2022-11-03T15:46:56.073Z,99.90
2022-11-03T15:49:29.376Z,99.90
2022-11-03T15:52:04.039Z,99.90
2022-11-03T15:54:42.155Z,99.90
2022-11-03T15:57:15.995Z,99.90
2022-11-03T15:59:50.645Z,99.90
2022-11-03T16:02:40.880Z,99.90
2022-11-03T16:05:17.755Z,99.90
2022-11-03T16:08:04.499Z,99.90
2022-11-03T16:10:39.348Z,99.90
2022-11-03T16:13:15.024Z,99.90
2022-11-03T16:15:48.389Z,99.90
2022-11-03T16:18:21.833Z,99.90
2022-11-03T16:20:55.215Z,99.90
2022-11-03T16:23:32.177Z,99.90
2022-11-03T16:26:05.733Z,99.90
2022-11-03T16:28:39.019Z,99.90
2022-11-03T16:31:12.399Z,99.90
2022-11-03T16:33:45.645Z,99.90
2022-11-03T16:36:19.340Z,99.90
2022-11-03T16:38:54.045Z,99.90
2022-11-03T16:41:27.353Z,99.90
2022-11-03T16:44:00.679Z,99.90
2022-11-03T16:46:33.972Z,99.90
2022-11-03T16:49:07.436Z,99.90
2022-11-03T16:51:43.312Z,99.90
2022-11-03T16:54:17.947Z,99.90
2022-11-03T16:56:54.659Z,99.90
2022-11-03T16:59:28.550Z,99.90
2022-11-03T17:02:01.949Z,99.90
2022-11-03T17:04:35.382Z,99.90
2022-11-03T17:07:08.692Z,99.90
2022-11-03T17:09:43.324Z,99.90
2022-11-03T17:12:16.622Z,99.90
2022-11-03T17:14:52.550Z,99.90
2022-11-03T17:17:29.102Z,99.90
2022-11-03T17:20:02.365Z,99.90
2022-11-03T17:22:35.669Z,99.90
2022-11-03T17:25:12.557Z,99.90
2022-11-03T17:27:48.296Z,99.90
2022-11-03T17:30:23.470Z,99.90
2022-11-03T17:32:59.486Z,99.90
2022-11-03T17:35:39.612Z,99.90
2022-11-03T17:38:15.396Z,99.90
2022-11-03T17:40:50.593Z,99.90
2022-11-03T17:43:25.671Z,99.90
2022-11-03T17:45:59.170Z,99.90
2022-11-03T17:48:32.697Z,99.90
2022-11-03T17:51:11.883Z,99.90
2022-11-03T17:53:46.672Z,99.90
2022-11-03T17:56:31.123Z,99.90
2022-11-03T17:59:04.943Z,99.90
2022-11-03T18:01:38.383Z,99.90
2022-11-03T18:06:51.764Z,99.90
2022-11-03T18:09:24.994Z,99.90
2022-11-03T18:12:13.535Z,99.90
2022-11-03T18:14:47.114Z,99.90
2022-11-03T18:17:20.404Z,99.90
2022-11-03T18:19:53.791Z,99.90
2022-11-03T18:22:27.077Z,99.90
2022-11-03T18:25:00.541Z,99.90
2022-11-03T18:27:35.204Z,99.90
2022-11-03T18:30:10.307Z,99.90
2022-11-03T18:32:45.406Z,99.90
2022-11-03T18:35:22.396Z,99.90
2022-11-03T18:37:56.570Z,99.90
2022-11-03T18:40:31.821Z,99.90
2022-11-03T18:43:13.806Z,99.90
2022-11-03T18:45:47.404Z,99.90
2022-11-03T18:48:20.886Z,99.90
2022-11-03T18:50:56.638Z,99.90
2022-11-03T18:53:30.945Z,99.90
2022-11-03T18:56:04.260Z,99.90
2022-11-03T18:58:39.076Z,99.90
2022-11-03T19:01:21.016Z,99.90
2022-11-03T19:03:56.331Z,99.90
2022-11-03T19:06:29.639Z,99.90
2022-11-03T19:09:02.968Z,99.90
2022-11-03T19:11:36.282Z,99.90
2022-11-03T19:14:16.922Z,99.90
2022-11-03T19:17:17.095Z,99.90
2022-11-03T19:19:45.367Z,99.90
2022-11-03T19:22:20.625Z,99.90
2022-11-03T19:24:53.870Z,99.90
2022-11-03T19:27:29.174Z,99.90
2022-11-03T19:30:05.617Z,99.90
2022-11-03T19:32:42.752Z,99.90
2022-11-03T19:35:20.551Z,99.90
2022-11-03T19:38:00.853Z,99.90
2022-11-03T19:40:34.576Z,99.90
2022-11-03T19:43:09.205Z,99.90
2022-11-03T19:45:43.892Z,99.90
2022-11-03T19:48:24.339Z,99.90
2022-11-03T19:50:58.486Z,99.90
2022-11-03T19:53:33.254Z,99.90
2022-11-03T19:56:06.798Z,99.90
2022-11-03T19:58:40.087Z,99.90
2022-11-03T20:01:14.832Z,99.90
2022-11-03T20:03:48.265Z,99.90
2022-11-03T20:06:21.638Z,99.90
2022-11-03T20:08:54.959Z,99.90
2022-11-03T20:11:28.541Z,99.90
2022-11-03T20:14:03.597Z,99.90
2022-11-03T20:16:38.208Z,99.90
2022-11-03T20:19:11.545Z,99.90
2022-11-03T20:21:45.431Z,99.90
2022-11-03T20:24:20.109Z,99.90
2022-11-03T20:26:53.434Z,99.90
2022-11-03T20:29:30.758Z,99.90
2022-11-03T20:32:11.210Z,99.90
2022-11-03T20:34:46.548Z,99.90
2022-11-03T20:37:21.863Z,99.90
2022-11-03T20:39:55.213Z,99.90
2022-11-03T20:42:28.816Z,99.90
2022-11-03T20:45:02.388Z,99.90
2022-11-03T20:47:37.048Z,99.90
2022-11-03T20:50:11.445Z,99.90
2022-11-03T20:52:46.753Z,99.90
2022-11-03T20:55:22.782Z,99.90
2022-11-03T20:57:56.552Z,99.90
2022-11-03T21:00:31.702Z,99.90
2022-11-03T21:03:31.457Z,99.90
2022-11-03T21:06:10.730Z,99.90
2022-11-03T21:08:44.346Z,99.90
2022-11-03T21:11:27.213Z,99.90
2022-11-03T21:14:03.899Z,99.90
2022-11-03T21:16:54.533Z,99.90
2022-11-03T21:19:57.225Z,99.90
2022-11-03T21:25:28.621Z,99.90
2022-11-03T21:28:01.875Z,99.90
2022-11-03T21:30:35.154Z,99.90
2022-11-03T21:33:08.563Z,99.90
2022-11-03T21:35:44.320Z,99.90
2022-11-03T21:38:18.791Z,99.90
2022-11-03T21:41:12.744Z,99.90
2022-11-03T21:44:05.517Z,99.90
2022-11-03T21:46:38.859Z,99.90
2022-11-03T21:49:29.873Z,99.90
2022-11-03T21:52:31.748Z,99.90
2022-11-03T21:55:06.660Z,99.90
2022-11-03T21:57:39.904Z,99.90
2022-11-03T22:00:14.466Z,99.90
2022-11-03T22:02:47.749Z,99.90
2022-11-03T22:05:21.048Z,99.90
2022-11-03T22:07:55.709Z,99.90
2022-11-03T22:10:28.948Z,99.90
2022-11-03T22:13:02.177Z,99.90
2022-11-03T22:15:52.856Z,99.90
2022-11-03T22:18:26.109Z,99.90
2022-11-03T22:21:16.772Z,99.90
2022-11-03T22:24:08.090Z,99.90
2022-11-03T22:26:59.943Z,99.90
2022-11-03T22:29:50.405Z,99.90
2022-11-03T22:32:23.701Z,99.90
2022-11-03T22:35:14.476Z,99.90
2022-11-03T22:37:47.914Z,99.90
2022-11-03T22:40:40.077Z,99.90
2022-11-03T22:43:36.191Z,99.90
2022-11-03T22:46:10.382Z,99.90
2022-11-03T22:48:43.861Z,99.90
2022-11-03T22:51:17.776Z,99.90
2022-11-03T22:54:08.250Z,99.90
2022-11-03T22:56:43.216Z,99.90
2022-11-03T22:59:16.516Z,99.90
2022-11-03T23:01:49.927Z,99.90
2022-11-03T23:04:23.232Z,99.90
2022-11-03T23:06:56.507Z,99.90
2022-11-03T23:09:29.849Z,99.90
2022-11-03T23:12:04.710Z,99.90
2022-11-03T23:14:51.980Z,99.90
2022-11-03T23:17:45.306Z,99.90
2022-11-03T23:20:36.380Z,99.90
2022-11-03T23:23:29.667Z,99.90
2022-11-03T23:26:01.945Z,99.90
2022-11-03T23:28:36.598Z,99.90
2022-11-03T23:31:10.548Z,99.90
2022-11-03T23:33:43.977Z,99.90
2022-11-03T23:36:18.470Z,99.90
2022-11-03T23:38:51.712Z,99.90
2022-11-03T23:41:25.921Z,99.90
2022-11-03T23:44:00.877Z,99.90
2022-11-03T23:46:52.218Z,99.90
2022-11-03T23:49:25.509Z,99.90
2022-11-03T23:51:59.112Z,99.90
2022-11-03T23:54:32.828Z,99.90
2022-11-03T23:57:23.258Z,99.90
2022-11-03T23:59:58.225Z,99.90
